createdAt,value
2024-01-26T00:00:27.644Z,95
2024-01-26T00:00:57.247Z,95
2024-01-26T00:01:29.786Z,95
2024-01-26T00:02:01.128Z,95
2024-01-26T00:02:34.778Z,95
2024-01-26T00:03:05.172Z,95
2024-01-26T00:03:37.773Z,95
2024-01-26T00:04:09.322Z,95
2024-01-26T00:04:36.126Z,95
2024-01-26T00:04:57.319Z,95
2024-01-26T00:05:29.331Z,96
2024-01-26T00:06:01.992Z,95
2024-01-26T00:06:33.105Z,95
2024-01-26T00:07:06.684Z,95
2024-01-26T00:07:36.041Z,95
2024-01-26T00:07:53.029Z,95
2024-01-26T00:08:25.160Z,95
2024-01-26T00:08:42.738Z,95
2024-01-26T00:09:14.629Z,95
2024-01-26T00:09:35.718Z,95
2024-01-26T00:10:01.367Z,95
2024-01-26T00:10:33.007Z,96
2024-01-26T00:11:04.997Z,96
2024-01-26T00:11:37.433Z,96
2024-01-26T00:12:09.246Z,96
2024-01-26T00:12:35.709Z,96
2024-01-26T00:12:57.123Z,96
2024-01-26T00:13:29.369Z,96
2024-01-26T00:14:01.732Z,96
2024-01-26T00:14:32.968Z,96
2024-01-26T00:15:22.451Z,96
2024-01-26T00:15:53.125Z,96
2024-01-26T00:16:25.878Z,96
2024-01-26T00:16:43.340Z,96
2024-01-26T00:17:13.542Z,96
2024-01-26T00:17:35.707Z,96
2024-01-26T00:18:01.155Z,96
2024-01-26T00:18:34.652Z,96
2024-01-26T00:19:05.159Z,96
2024-01-26T00:19:36.491Z,96
2024-01-26T00:19:52.929Z,96
2024-01-26T00:20:26.797Z,96
2024-01-26T00:20:43.242Z,96
2024-01-26T00:21:13.523Z,96
2024-01-26T00:21:35.931Z,96
2024-01-26T00:22:02.511Z,96
2024-01-26T00:22:33.015Z,96
2024-01-26T00:23:05.834Z,96
2024-01-26T00:23:35.680Z,96
2024-01-26T00:23:52.990Z,96
2024-01-26T00:24:25.324Z,96
2024-01-26T00:24:42.254Z,96
2024-01-26T00:25:14.446Z,96
2024-01-26T00:25:35.864Z,96
2024-01-26T00:26:01.095Z,96
2024-01-26T00:26:33.018Z,96
2024-01-26T00:27:05.157Z,96
2024-01-26T00:27:35.698Z,96
2024-01-26T00:27:53.040Z,96
2024-01-26T00:28:27.775Z,96
2024-01-26T00:28:57.089Z,96
2024-01-26T00:29:30.874Z,96
2024-01-26T00:30:01.340Z,96
2024-01-26T00:30:33.818Z,96
2024-01-26T00:31:05.063Z,96
2024-01-26T00:31:38.612Z,96
2024-01-26T00:32:09.156Z,96
2024-01-26T00:32:35.862Z,96
2024-01-26T00:32:57.031Z,96
2024-01-26T00:33:29.319Z,96
2024-01-26T00:34:02.160Z,96
2024-01-26T00:34:33.277Z,96
2024-01-26T00:35:06.264Z,96
2024-01-26T00:35:35.729Z,96
2024-01-26T00:35:53.491Z,96
2024-01-26T00:36:25.185Z,96
2024-01-26T00:36:42.277Z,96
2024-01-26T00:37:14.169Z,96
2024-01-26T00:37:35.750Z,96
2024-01-26T00:38:01.085Z,96
2024-01-26T00:38:33.094Z,96
2024-01-26T00:39:05.077Z,96
2024-01-26T00:39:35.813Z,96
2024-01-26T00:39:53.816Z,96
2024-01-26T00:40:25.889Z,96
2024-01-26T00:40:42.959Z,96
2024-01-26T00:41:13.254Z,96
2024-01-26T00:41:35.711Z,96
2024-01-26T00:42:01.108Z,96
2024-01-26T00:42:45.882Z,96
2024-01-26T00:43:05.152Z,96
2024-01-26T00:43:35.748Z,96
2024-01-26T00:43:53.052Z,96
2024-01-26T00:44:25.302Z,96
2024-01-26T00:44:42.252Z,96
2024-01-26T00:45:14.240Z,96
2024-01-26T00:45:35.753Z,96
2024-01-26T00:46:01.166Z,96
2024-01-26T00:46:33.034Z,96
2024-01-26T00:47:04.981Z,96
2024-01-26T00:47:35.752Z,96
2024-01-26T00:47:53.046Z,96
2024-01-26T00:48:26.305Z,96
2024-01-26T00:48:43.235Z,96
2024-01-26T00:49:13.166Z,96
2024-01-26T00:49:42.200Z,96
2024-01-26T00:50:01.527Z,96
2024-01-26T00:50:33.929Z,96
2024-01-26T00:51:05.080Z,96
2024-01-26T00:51:36.822Z,96
2024-01-26T00:52:09.182Z,96
2024-01-26T00:52:35.899Z,96
2024-01-26T00:52:57.072Z,96
2024-01-26T00:53:29.101Z,96
2024-01-26T00:54:01.863Z,96
2024-01-26T00:54:33.007Z,96
2024-01-26T00:55:06.141Z,96
2024-01-26T00:55:36.066Z,96
2024-01-26T00:56:09.840Z,96
2024-01-26T00:56:35.698Z,96
2024-01-26T00:56:57.048Z,96
2024-01-26T00:57:29.231Z,96
2024-01-26T00:58:17.777Z,96
2024-01-26T00:58:35.744Z,96
2024-01-26T00:59:04.976Z,96
2024-01-26T00:59:36.189Z,96
2024-01-26T01:00:09.840Z,96
2024-01-26T01:00:35.732Z,97
2024-01-26T01:00:57.448Z,96
2024-01-26T01:01:29.898Z,97
2024-01-26T01:02:01.231Z,96
2024-01-26T01:02:33.840Z,97
2024-01-26T01:03:04.977Z,97
2024-01-26T01:03:36.655Z,97
2024-01-26T01:04:09.045Z,97
2024-01-26T01:04:35.752Z,97
2024-01-26T01:04:57.030Z,97
2024-01-26T01:05:29.238Z,97
2024-01-26T01:06:01.945Z,97
2024-01-26T01:06:33.197Z,97
2024-01-26T01:07:05.767Z,97
2024-01-26T01:07:35.775Z,97
2024-01-26T01:07:53.081Z,97
2024-01-26T01:08:24.954Z,97
2024-01-26T01:08:42.226Z,97
2024-01-26T01:09:20.840Z,97
2024-01-26T01:09:44.999Z,97
2024-01-26T01:10:17.158Z,97
2024-01-26T01:10:48.966Z,97
2024-01-26T01:11:20.982Z,97
2024-01-26T01:11:53.086Z,97
2024-01-26T01:12:25.056Z,97
2024-01-26T01:12:42.991Z,97
2024-01-26T01:13:13.129Z,97
2024-01-26T01:13:35.683Z,97
2024-01-26T01:14:01.153Z,97
2024-01-26T01:14:32.975Z,97
2024-01-26T01:15:06.159Z,97
2024-01-26T01:15:35.689Z,97
2024-01-26T01:15:53.200Z,97
2024-01-26T01:16:25.099Z,97
2024-01-26T01:16:42.223Z,97
2024-01-26T01:17:13.718Z,97
2024-01-26T01:17:35.634Z,97
2024-01-26T01:18:01.164Z,97
2024-01-26T01:18:33.038Z,97
2024-01-26T01:19:05.266Z,97
2024-01-26T01:19:35.790Z,97
2024-01-26T01:19:53.010Z,97
2024-01-26T01:20:25.949Z,97
2024-01-26T01:20:43.097Z,97
2024-01-26T01:21:13.156Z,97
2024-01-26T01:21:35.803Z,97
2024-01-26T01:22:01.672Z,97
2024-01-26T01:22:33.811Z,97
2024-01-26T01:23:05.288Z,97
2024-01-26T01:23:36.761Z,97
2024-01-26T01:23:53.099Z,97
2024-01-26T01:24:35.939Z,97
2024-01-26T01:24:57.048Z,97
2024-01-26T01:25:29.318Z,97
2024-01-26T01:26:01.786Z,97
2024-01-26T01:26:32.908Z,97
2024-01-26T01:27:05.696Z,97
2024-01-26T01:27:35.716Z,97
2024-01-26T01:27:53.311Z,97
2024-01-26T01:28:24.982Z,97
2024-01-26T01:28:42.138Z,97
2024-01-26T01:29:13.640Z,97
2024-01-26T01:29:36.013Z,97
2024-01-26T01:30:01.502Z,97
2024-01-26T01:30:32.970Z,97
2024-01-26T01:31:05.432Z,97
2024-01-26T01:31:35.796Z,97
2024-01-26T01:31:53.003Z,97
2024-01-26T01:32:28.878Z,97
2024-01-26T01:32:57.033Z,97
2024-01-26T01:33:30.112Z,97
2024-01-26T01:34:01.490Z,97
2024-01-26T01:34:33.582Z,97
2024-01-26T01:35:05.284Z,98
2024-01-26T01:35:36.520Z,97
2024-01-26T01:35:53.243Z,97
2024-01-26T01:36:24.996Z,97
2024-01-26T01:36:42.820Z,97
2024-01-26T01:37:13.100Z,97
2024-01-26T01:37:35.814Z,97
2024-01-26T01:38:01.025Z,97
2024-01-26T01:38:32.903Z,97
2024-01-26T01:39:06.654Z,97
2024-01-26T01:39:36.223Z,97
2024-01-26T01:39:53.127Z,97
2024-01-26T01:40:25.146Z,97
2024-01-26T01:40:42.862Z,97
2024-01-26T01:41:13.810Z,97
2024-01-26T01:41:36.027Z,97
2024-01-26T01:42:00.972Z,97
2024-01-26T01:42:33.018Z,97
2024-01-26T01:43:04.882Z,97
2024-01-26T01:43:35.956Z,97
2024-01-26T01:44:09.696Z,97
2024-01-26T01:44:36.274Z,97
2024-01-26T01:44:56.999Z,97
2024-01-26T01:45:29.343Z,97
2024-01-26T01:46:01.072Z,97
2024-01-26T01:46:32.971Z,97
2024-01-26T01:47:04.896Z,97
2024-01-26T01:47:36.068Z,97
2024-01-26T01:48:09.790Z,97
2024-01-26T01:48:36.354Z,97
2024-01-26T01:48:57.211Z,97
2024-01-26T01:49:28.993Z,97
2024-01-26T01:50:01.270Z,97
2024-01-26T01:50:33.092Z,97
2024-01-26T01:51:04.963Z,97
2024-01-26T01:51:35.756Z,97
2024-01-26T01:51:53.201Z,97
2024-01-26T01:52:25.613Z,97
2024-01-26T01:52:43.151Z,97
2024-01-26T01:53:13.192Z,97
2024-01-26T01:53:35.821Z,97
2024-01-26T01:54:01.056Z,97
2024-01-26T01:54:33.837Z,97
2024-01-26T01:55:05.140Z,97
2024-01-26T01:55:36.534Z,97
2024-01-26T01:55:53.271Z,97
2024-01-26T01:56:25.270Z,97
2024-01-26T01:56:42.986Z,97
2024-01-26T01:57:13.202Z,97
2024-01-26T01:57:35.645Z,97
2024-01-26T01:58:01.100Z,96
2024-01-26T01:58:33.077Z,96
2024-01-26T01:59:05.631Z,96
2024-01-26T01:59:35.763Z,96
2024-01-26T01:59:53.030Z,96
2024-01-26T02:00:26.642Z,96
2024-01-26T02:00:42.284Z,96
2024-01-26T02:01:13.760Z,96
2024-01-26T02:01:35.771Z,96
2024-01-26T02:02:01.074Z,96
2024-01-26T02:02:32.947Z,96
2024-01-26T02:03:04.968Z,96
2024-01-26T02:03:35.897Z,96
2024-01-26T02:04:09.066Z,96
2024-01-26T02:04:36.418Z,96
2024-01-26T02:04:57.077Z,96
2024-01-26T02:05:29.389Z,96
2024-01-26T02:06:01.264Z,96
2024-01-26T02:06:33.025Z,96
2024-01-26T02:07:04.960Z,96
2024-01-26T02:07:36.076Z,96
2024-01-26T02:08:10.595Z,96
2024-01-26T02:08:35.777Z,96
2024-01-26T02:08:57.115Z,96
2024-01-26T02:09:29.084Z,96
2024-01-26T02:10:01.231Z,96
2024-01-26T02:10:32.892Z,96
2024-01-26T02:11:04.972Z,96
2024-01-26T02:11:35.719Z,96
2024-01-26T02:11:52.962Z,96
2024-01-26T02:12:26.810Z,96
2024-01-26T02:12:57.156Z,96
2024-01-26T02:13:29.710Z,96
2024-01-26T02:14:01.122Z,96
2024-01-26T02:14:33.610Z,96
2024-01-26T02:15:05.563Z,95
2024-01-26T02:15:37.721Z,95
2024-01-26T02:16:09.017Z,95
2024-01-26T02:16:35.731Z,95
2024-01-26T02:16:57.266Z,95
2024-01-26T02:17:29.358Z,95
2024-01-26T02:18:03.497Z,95
2024-01-26T02:18:33.092Z,95
2024-01-26T02:19:06.677Z,95
2024-01-26T02:19:36.044Z,95
2024-01-26T02:20:08.756Z,95
2024-01-26T02:20:38.047Z,95
2024-01-26T02:20:57.166Z,95
2024-01-26T02:21:29.905Z,95
2024-01-26T02:22:02.098Z,95
2024-01-26T02:22:36.429Z,95
2024-01-26T02:23:05.016Z,95
2024-01-26T02:23:35.698Z,95
2024-01-26T02:23:53.470Z,95
2024-01-26T02:24:25.026Z,95
2024-01-26T02:24:42.100Z,95
2024-01-26T02:25:13.319Z,95
2024-01-26T02:25:35.759Z,94
2024-01-26T02:26:02.663Z,94
2024-01-26T02:26:32.934Z,94
2024-01-26T02:27:05.926Z,94
2024-01-26T02:27:35.796Z,94
2024-01-26T02:27:52.940Z,94
2024-01-26T02:28:25.755Z,94
2024-01-26T02:28:42.857Z,94
2024-01-26T02:29:13.226Z,94
2024-01-26T02:29:35.687Z,94
2024-01-26T02:30:01.321Z,94
2024-01-26T02:30:36.940Z,94
2024-01-26T02:31:05.027Z,94
2024-01-26T02:31:35.641Z,94
2024-01-26T02:31:53.466Z,94
2024-01-26T02:32:25.427Z,94
2024-01-26T02:32:42.190Z,94
2024-01-26T02:33:13.618Z,93
2024-01-26T02:33:35.818Z,93
2024-01-26T02:34:01.945Z,93
2024-01-26T02:34:32.986Z,93
2024-01-26T02:35:06.151Z,93
2024-01-26T02:35:35.676Z,93
2024-01-26T02:35:53.152Z,93
2024-01-26T02:36:25.068Z,93
2024-01-26T02:36:42.151Z,93
2024-01-26T02:37:14.630Z,93
2024-01-26T02:37:35.707Z,93
2024-01-26T02:38:00.975Z,93
2024-01-26T02:38:32.863Z,93
2024-01-26T02:39:04.940Z,93
2024-01-26T02:39:35.927Z,93
2024-01-26T02:39:53.000Z,93
2024-01-26T02:40:27.032Z,93
2024-01-26T02:40:44.012Z,93
2024-01-26T02:41:12.988Z,93
2024-01-26T02:41:35.938Z,93
2024-01-26T02:42:01.195Z,93
2024-01-26T02:42:33.513Z,93
2024-01-26T02:43:04.921Z,93
2024-01-26T02:43:36.746Z,93
2024-01-26T02:44:09.579Z,93
2024-01-26T02:44:36.300Z,93
2024-01-26T02:44:57.189Z,93
2024-01-26T02:45:30.321Z,93
2024-01-26T02:46:01.900Z,93
2024-01-26T02:46:33.309Z,93
2024-01-26T02:47:05.596Z,93
2024-01-26T02:47:35.839Z,93
2024-01-26T02:47:53.331Z,93
2024-01-26T02:48:25.277Z,92
2024-01-26T02:48:42.489Z,92
2024-01-26T02:49:13.845Z,92
2024-01-26T02:49:35.884Z,92
2024-01-26T02:50:01.227Z,92
2024-01-26T02:50:32.980Z,92
2024-01-26T02:51:04.947Z,92
2024-01-26T02:51:35.754Z,92
2024-01-26T02:51:52.985Z,92
2024-01-26T02:52:25.732Z,92
2024-01-26T02:52:43.157Z,92
2024-01-26T02:53:13.026Z,92
2024-01-26T02:53:35.714Z,92
2024-01-26T02:54:01.023Z,92
2024-01-26T02:54:34.129Z,92
2024-01-26T02:55:05.743Z,92
2024-01-26T02:55:38.119Z,92
2024-01-26T02:56:09.114Z,92
2024-01-26T02:56:35.966Z,92
2024-01-26T02:56:56.974Z,92
2024-01-26T02:57:29.079Z,92
2024-01-26T02:58:01.655Z,92
2024-01-26T02:58:32.960Z,92
2024-01-26T02:59:05.652Z,92
2024-01-26T02:59:36.064Z,92
2024-01-26T02:59:53.073Z,92
2024-01-26T03:00:25.539Z,92
2024-01-26T03:00:42.285Z,92
2024-01-26T03:01:13.749Z,92
2024-01-26T03:01:35.800Z,92
2024-01-26T03:02:00.973Z,92
2024-01-26T03:02:32.950Z,92
2024-01-26T03:03:04.992Z,92
2024-01-26T03:03:35.739Z,92
2024-01-26T03:03:53.030Z,92
2024-01-26T03:04:25.629Z,92
2024-01-26T03:04:42.847Z,92
2024-01-26T03:05:13.396Z,92
2024-01-26T03:05:35.920Z,92
2024-01-26T03:06:01.068Z,92
2024-01-26T03:06:34.384Z,92
2024-01-26T03:07:05.006Z,92
2024-01-26T03:07:36.383Z,92
2024-01-26T03:07:53.011Z,92
2024-01-26T03:08:25.135Z,92
2024-01-26T03:08:43.126Z,92
2024-01-26T03:09:13.149Z,92
2024-01-26T03:09:36.476Z,92
2024-01-26T03:10:01.279Z,92
2024-01-26T03:10:33.045Z,92
2024-01-26T03:11:05.787Z,92
2024-01-26T03:11:36.251Z,92
2024-01-26T03:11:52.971Z,92
2024-01-26T03:12:24.848Z,92
2024-01-26T03:12:42.094Z,92
2024-01-26T03:13:13.851Z,92
2024-01-26T03:13:36.082Z,92
2024-01-26T03:14:01.050Z,92
2024-01-26T03:14:33.015Z,92
2024-01-26T03:15:05.406Z,92
2024-01-26T03:15:35.706Z,92
2024-01-26T03:15:53.450Z,92
2024-01-26T03:16:26.779Z,92
2024-01-26T03:16:56.993Z,92
2024-01-26T03:17:30.557Z,92
2024-01-26T03:18:01.069Z,93
2024-01-26T03:18:34.091Z,92
2024-01-26T03:19:05.074Z,93
2024-01-26T03:19:36.785Z,93
2024-01-26T03:20:09.358Z,93
2024-01-26T03:20:37.384Z,93
2024-01-26T03:20:57.256Z,93
2024-01-26T03:21:29.081Z,93
2024-01-26T03:22:01.835Z,92
2024-01-26T03:22:33.748Z,92
2024-01-26T03:23:06.394Z,92
2024-01-26T03:23:35.753Z,92
2024-01-26T03:23:52.943Z,92
2024-01-26T03:24:25.292Z,92
2024-01-26T03:24:42.083Z,92
2024-01-26T03:25:14.830Z,92
2024-01-26T03:25:35.668Z,93
2024-01-26T03:26:01.026Z,93
2024-01-26T03:26:32.970Z,92
2024-01-26T03:27:04.951Z,93
2024-01-26T03:27:35.681Z,92
2024-01-26T03:27:53.039Z,92
2024-01-26T03:28:27.295Z,92
2024-01-26T03:28:57.003Z,92
2024-01-26T03:29:31.723Z,92
2024-01-26T03:30:01.381Z,92
2024-01-26T03:30:34.747Z,92
2024-01-26T03:31:04.909Z,93
2024-01-26T03:31:36.850Z,93
2024-01-26T03:32:08.992Z,93
2024-01-26T03:32:35.943Z,93
2024-01-26T03:32:57.001Z,93
2024-01-26T03:33:29.272Z,93
2024-01-26T03:34:04.277Z,93
2024-01-26T03:34:32.924Z,93
2024-01-26T03:35:22.162Z,93
2024-01-26T03:35:52.974Z,93
2024-01-26T03:36:25.606Z,92
2024-01-26T03:36:42.993Z,92
2024-01-26T03:37:13.059Z,92
2024-01-26T03:37:35.706Z,93
2024-01-26T03:38:00.940Z,92
2024-01-26T03:38:33.690Z,92
2024-01-26T03:39:04.972Z,92
2024-01-26T03:39:36.916Z,92
2024-01-26T03:40:25.071Z,92
2024-01-26T03:40:43.339Z,92
2024-01-26T03:41:13.050Z,92
2024-01-26T03:41:35.725Z,92
2024-01-26T03:42:00.967Z,92
2024-01-26T03:42:32.850Z,92
2024-01-26T03:43:06.532Z,92
2024-01-26T03:43:36.035Z,92
2024-01-26T03:43:53.301Z,92
2024-01-26T03:44:25.611Z,92
2024-01-26T03:44:42.119Z,92
2024-01-26T03:45:14.175Z,92
2024-01-26T03:45:35.967Z,92
2024-01-26T03:46:00.915Z,92
2024-01-26T03:46:32.920Z,92
2024-01-26T03:47:04.861Z,92
2024-01-26T03:47:35.833Z,92
2024-01-26T03:47:53.145Z,92
2024-01-26T03:48:26.927Z,92
2024-01-26T03:48:44.018Z,92
2024-01-26T03:49:13.163Z,92
2024-01-26T03:49:35.871Z,92
2024-01-26T03:50:01.305Z,92
2024-01-26T03:50:33.941Z,92
2024-01-26T03:51:04.972Z,92
2024-01-26T03:51:39.412Z,92
2024-01-26T03:52:09.238Z,92
2024-01-26T03:52:35.789Z,92
2024-01-26T03:52:56.958Z,92
2024-01-26T03:53:29.206Z,92
2024-01-26T03:54:01.674Z,92
2024-01-26T03:54:33.040Z,92
2024-01-26T03:55:07.015Z,92
2024-01-26T03:55:35.884Z,92
2024-01-26T03:55:53.153Z,92
2024-01-26T03:56:24.948Z,92
2024-01-26T03:56:42.333Z,92
2024-01-26T03:57:14.407Z,92
2024-01-26T03:57:36.999Z,92
2024-01-26T03:58:01.031Z,92
2024-01-26T03:58:32.917Z,92
2024-01-26T03:59:04.897Z,92
2024-01-26T03:59:35.707Z,92
2024-01-26T03:59:53.092Z,92
2024-01-26T04:00:27.409Z,92
2024-01-26T04:00:56.981Z,92
2024-01-26T04:01:29.966Z,92
2024-01-26T04:02:00.981Z,92
2024-01-26T04:02:36.799Z,92
2024-01-26T04:03:04.947Z,92
2024-01-26T04:03:35.879Z,92
2024-01-26T04:03:53.561Z,92
2024-01-26T04:04:25.026Z,92
2024-01-26T04:04:42.423Z,92
2024-01-26T04:05:13.212Z,92
2024-01-26T04:05:35.729Z,92
2024-01-26T04:06:01.903Z,92
2024-01-26T04:06:33.451Z,92
2024-01-26T04:07:05.840Z,92
2024-01-26T04:07:36.118Z,92
2024-01-26T04:08:10.429Z,92
2024-01-26T04:08:35.828Z,92
2024-01-26T04:08:56.991Z,92
2024-01-26T04:09:29.514Z,91
2024-01-26T04:10:01.157Z,91
2024-01-26T04:10:33.005Z,91
2024-01-26T04:11:04.895Z,91
2024-01-26T04:11:35.856Z,91
2024-01-26T04:11:53.023Z,92
2024-01-26T04:12:26.020Z,91
2024-01-26T04:12:43.149Z,92
2024-01-26T04:13:12.999Z,92
2024-01-26T04:13:35.735Z,92
2024-01-26T04:14:00.892Z,92
2024-01-26T04:14:33.611Z,92
2024-01-26T04:15:06.891Z,92
2024-01-26T04:15:36.580Z,92
2024-01-26T04:16:09.181Z,92
2024-01-26T04:16:35.796Z,92
2024-01-26T04:16:56.935Z,92
2024-01-26T04:17:29.252Z,92
2024-01-26T04:18:02.067Z,92
2024-01-26T04:18:33.070Z,92
2024-01-26T04:19:05.988Z,92
2024-01-26T04:19:35.998Z,92
2024-01-26T04:19:53.721Z,92
2024-01-26T04:20:25.286Z,92
2024-01-26T04:20:42.151Z,92
2024-01-26T04:21:14.456Z,92
2024-01-26T04:21:35.803Z,92
2024-01-26T04:22:01.951Z,92
2024-01-26T04:22:33.327Z,92
2024-01-26T04:23:04.866Z,92
2024-01-26T04:23:35.835Z,92
2024-01-26T04:23:53.020Z,92
2024-01-26T04:24:26.510Z,92
2024-01-26T04:24:56.903Z,92
2024-01-26T04:25:29.896Z,92
2024-01-26T04:26:01.395Z,92
2024-01-26T04:26:33.518Z,92
2024-01-26T04:27:05.799Z,92
2024-01-26T04:27:36.592Z,92
2024-01-26T04:28:09.086Z,92
2024-01-26T04:28:35.701Z,92
2024-01-26T04:28:57.712Z,92
2024-01-26T04:29:29.282Z,92
2024-01-26T04:30:03.090Z,92
2024-01-26T04:30:32.955Z,92
2024-01-26T04:31:05.775Z,92
2024-01-26T04:31:35.823Z,92
2024-01-26T04:31:52.890Z,92
2024-01-26T04:32:25.024Z,92
2024-01-26T04:32:42.242Z,92
2024-01-26T04:33:14.870Z,92
2024-01-26T04:33:35.857Z,91
2024-01-26T04:34:18.054Z,91
2024-01-26T04:34:35.964Z,91
2024-01-26T04:35:05.026Z,91
2024-01-26T04:35:35.799Z,91
2024-01-26T04:35:53.114Z,91
2024-01-26T04:36:25.524Z,91
2024-01-26T04:36:42.774Z,91
2024-01-26T04:37:13.088Z,91
2024-01-26T04:37:35.854Z,91
2024-01-26T04:38:00.922Z,91
2024-01-26T04:38:33.692Z,91
2024-01-26T04:39:05.104Z,91
2024-01-26T04:39:36.833Z,91
2024-01-26T04:40:09.242Z,91
2024-01-26T04:40:35.768Z,91
2024-01-26T04:40:57.212Z,91
2024-01-26T04:41:29.236Z,91
2024-01-26T04:42:01.909Z,91
2024-01-26T04:42:32.984Z,91
2024-01-26T04:43:21.590Z,91
2024-01-26T04:43:53.089Z,91
2024-01-26T04:44:25.826Z,91
2024-01-26T04:44:42.824Z,91
2024-01-26T04:45:13.386Z,91
2024-01-26T04:45:35.662Z,91
2024-01-26T04:46:00.968Z,91
2024-01-26T04:46:33.505Z,91
2024-01-26T04:47:04.841Z,91
2024-01-26T04:47:36.702Z,91
2024-01-26T04:48:09.255Z,91
2024-01-26T04:48:36.062Z,91
2024-01-26T04:48:57.040Z,91
2024-01-26T04:49:29.187Z,91
2024-01-26T04:50:01.951Z,91
2024-01-26T04:50:32.861Z,91
2024-01-26T04:51:05.689Z,91
2024-01-26T04:51:35.773Z,91
2024-01-26T04:51:52.935Z,91
2024-01-26T04:52:24.896Z,91
2024-01-26T04:52:44.390Z,91
2024-01-26T04:53:13.807Z,91
2024-01-26T04:53:35.806Z,91
2024-01-26T04:54:01.075Z,91
2024-01-26T04:54:32.880Z,91
2024-01-26T04:55:05.004Z,91
2024-01-26T04:55:35.650Z,91
2024-01-26T04:55:53.074Z,91
2024-01-26T04:56:25.749Z,91
2024-01-26T04:56:43.168Z,91
2024-01-26T04:57:13.080Z,91
2024-01-26T04:57:35.756Z,91
2024-01-26T04:58:01.013Z,91
2024-01-26T04:58:33.646Z,91
2024-01-26T04:59:04.860Z,91
2024-01-26T04:59:36.564Z,91
2024-01-26T04:59:53.042Z,91
2024-01-26T05:00:25.863Z,91
2024-01-26T05:00:42.846Z,91
2024-01-26T05:01:13.028Z,91
2024-01-26T05:01:35.699Z,92
2024-01-26T05:02:00.959Z,92
2024-01-26T05:02:32.971Z,92
2024-01-26T05:03:05.997Z,92
2024-01-26T05:03:35.996Z,92
2024-01-26T05:03:53.047Z,92
2024-01-26T05:04:25.670Z,91
2024-01-26T05:04:42.150Z,91
2024-01-26T05:05:14.108Z,91
2024-01-26T05:05:35.800Z,91
2024-01-26T05:06:01.021Z,91
2024-01-26T05:06:32.884Z,91
2024-01-26T05:07:05.004Z,91
2024-01-26T05:07:36.806Z,91
2024-01-26T05:08:10.062Z,91
2024-01-26T05:08:35.951Z,91
2024-01-26T05:08:57.134Z,91
2024-01-26T05:09:29.210Z,91
2024-01-26T05:10:01.785Z,91
2024-01-26T05:10:33.089Z,91
2024-01-26T05:11:05.781Z,91
2024-01-26T05:11:35.724Z,91
2024-01-26T05:11:53.054Z,91
2024-01-26T05:12:24.937Z,91
2024-01-26T05:12:42.088Z,91
2024-01-26T05:13:13.751Z,91
2024-01-26T05:13:35.732Z,91
2024-01-26T05:14:00.866Z,91
2024-01-26T05:14:32.903Z,91
2024-01-26T05:15:07.060Z,91
2024-01-26T05:15:35.771Z,91
2024-01-26T05:15:53.170Z,91
2024-01-26T05:16:25.529Z,91
2024-01-26T05:16:42.733Z,91
2024-01-26T05:17:12.989Z,91
2024-01-26T05:17:35.897Z,91
2024-01-26T05:18:00.986Z,91
2024-01-26T05:18:33.553Z,91
2024-01-26T05:19:05.087Z,91
2024-01-26T05:19:36.736Z,91
2024-01-26T05:20:09.378Z,92
2024-01-26T05:20:35.800Z,92
2024-01-26T05:20:57.065Z,92
2024-01-26T05:21:29.204Z,92
2024-01-26T05:22:02.026Z,92
2024-01-26T05:22:32.923Z,92
2024-01-26T05:23:15.004Z,92
2024-01-26T05:23:36.016Z,92
2024-01-26T05:24:09.366Z,92
2024-01-26T05:24:35.770Z,92
2024-01-26T05:24:56.913Z,92
2024-01-26T05:25:29.921Z,92
2024-01-26T05:26:00.928Z,92
2024-01-26T05:26:33.554Z,92
2024-01-26T05:27:04.894Z,92
2024-01-26T05:27:36.506Z,92
2024-01-26T05:27:53.025Z,92
2024-01-26T05:28:24.851Z,92
2024-01-26T05:28:42.774Z,92
2024-01-26T05:29:12.987Z,92
2024-01-26T05:29:35.787Z,92
2024-01-26T05:30:01.130Z,92
2024-01-26T05:30:32.873Z,92
2024-01-26T05:31:05.849Z,92
2024-01-26T05:31:36.336Z,92
2024-01-26T05:31:53.904Z,92
2024-01-26T05:32:24.892Z,92
2024-01-26T05:32:42.231Z,92
2024-01-26T05:33:14.220Z,92
2024-01-26T05:33:35.960Z,92
2024-01-26T05:34:01.321Z,92
2024-01-26T05:34:32.898Z,92
2024-01-26T05:35:24.460Z,92
2024-01-26T05:35:53.140Z,92
2024-01-26T05:36:25.529Z,92
2024-01-26T05:36:42.799Z,92
2024-01-26T05:37:12.920Z,92
2024-01-26T05:37:35.750Z,92
2024-01-26T05:38:01.486Z,92
2024-01-26T05:38:33.633Z,92
2024-01-26T05:39:04.961Z,92
2024-01-26T05:39:36.526Z,92
2024-01-26T05:40:09.350Z,92
2024-01-26T05:40:35.779Z,92
2024-01-26T05:40:57.110Z,92
2024-01-26T05:41:30.716Z,92
2024-01-26T05:42:01.566Z,92
2024-01-26T05:42:32.850Z,92
2024-01-26T05:43:05.621Z,92
2024-01-26T05:43:35.673Z,92
2024-01-26T05:43:52.827Z,92
2024-01-26T05:44:25.256Z,92
2024-01-26T05:44:42.097Z,92
2024-01-26T05:45:14.232Z,92
2024-01-26T05:45:35.799Z,92
2024-01-26T05:46:00.879Z,92
2024-01-26T05:46:32.939Z,92
2024-01-26T05:47:04.822Z,92
2024-01-26T05:47:35.877Z,92
2024-01-26T05:47:53.095Z,92
2024-01-26T05:48:26.651Z,92
2024-01-26T05:48:43.946Z,92
2024-01-26T05:49:13.251Z,92
2024-01-26T05:49:36.016Z,92
2024-01-26T05:50:01.432Z,92
2024-01-26T05:50:33.750Z,92
2024-01-26T05:51:04.882Z,92
2024-01-26T05:51:36.660Z,92
2024-01-26T05:52:09.285Z,92
2024-01-26T05:52:36.113Z,92
2024-01-26T05:52:56.885Z,92
2024-01-26T05:53:29.330Z,91
2024-01-26T05:54:01.831Z,91
2024-01-26T05:54:32.849Z,91
2024-01-26T05:55:06.629Z,91
2024-01-26T05:55:35.715Z,91
2024-01-26T05:55:53.057Z,91
2024-01-26T05:56:24.978Z,91
2024-01-26T05:56:42.154Z,91
2024-01-26T05:57:13.649Z,91
2024-01-26T05:57:35.736Z,91
2024-01-26T05:58:00.966Z,91
2024-01-26T05:58:32.843Z,91
2024-01-26T05:59:04.855Z,91
2024-01-26T05:59:35.851Z,91
2024-01-26T05:59:52.959Z,91
2024-01-26T06:00:26.297Z,91
2024-01-26T06:00:42.968Z,91
2024-01-26T06:01:12.986Z,91
2024-01-26T06:01:35.771Z,91
2024-01-26T06:02:00.929Z,91
2024-01-26T06:02:33.535Z,91
2024-01-26T06:03:04.807Z,91
2024-01-26T06:03:36.507Z,91
2024-01-26T06:04:09.169Z,91
2024-01-26T06:04:35.721Z,91
2024-01-26T06:04:57.020Z,91
2024-01-26T06:05:36.353Z,91
2024-01-26T06:06:18.085Z,91
2024-01-26T06:06:35.848Z,91
2024-01-26T06:07:21.583Z,90
2024-01-26T06:08:25.989Z,90
2024-01-26T06:08:45.006Z,90
2024-01-26T06:09:12.930Z,90
2024-01-26T06:09:35.767Z,90
2024-01-26T06:10:01.425Z,90
2024-01-26T06:10:33.648Z,90
2024-01-26T06:11:04.884Z,90
2024-01-26T06:11:37.211Z,90
2024-01-26T06:12:09.608Z,90
2024-01-26T06:12:36.320Z,90
2024-01-26T06:12:57.068Z,90
2024-01-26T06:13:30.215Z,90
2024-01-26T06:14:01.608Z,91
2024-01-26T06:14:32.978Z,91
2024-01-26T06:15:06.126Z,91
2024-01-26T06:15:35.779Z,91
2024-01-26T06:16:09.744Z,91
2024-01-26T06:16:35.839Z,91
2024-01-26T06:16:56.886Z,91
2024-01-26T06:17:29.189Z,91
2024-01-26T06:18:00.990Z,91
2024-01-26T06:18:33.148Z,91
2024-01-26T06:19:05.653Z,91
2024-01-26T06:19:35.991Z,91
2024-01-26T06:19:53.038Z,91
2024-01-26T06:20:25.793Z,91
2024-01-26T06:20:43.040Z,91
2024-01-26T06:21:13.071Z,91
2024-01-26T06:21:35.978Z,91
2024-01-26T06:22:01.486Z,91
2024-01-26T06:22:34.457Z,91
2024-01-26T06:23:04.811Z,91
2024-01-26T06:23:36.680Z,91
2024-01-26T06:24:09.213Z,91
2024-01-26T06:24:35.696Z,91
2024-01-26T06:24:56.997Z,91
2024-01-26T06:25:29.398Z,91
2024-01-26T06:26:02.685Z,91
2024-01-26T06:26:32.879Z,91
2024-01-26T06:27:06.714Z,91
2024-01-26T06:27:36.004Z,91
2024-01-26T06:27:52.869Z,91
2024-01-26T06:28:25.115Z,92
2024-01-26T06:28:42.123Z,92
2024-01-26T06:29:13.696Z,92
2024-01-26T06:29:35.730Z,92
2024-01-26T06:30:01.897Z,92
2024-01-26T06:30:32.856Z,92
2024-01-26T06:31:05.658Z,92
2024-01-26T06:31:35.747Z,92
2024-01-26T06:31:52.957Z,92
2024-01-26T06:32:25.698Z,92
2024-01-26T06:32:42.918Z,93
2024-01-26T06:33:13.386Z,93
2024-01-26T06:33:36.791Z,93
2024-01-26T06:34:01.523Z,93
2024-01-26T06:34:33.247Z,93
2024-01-26T06:35:05.325Z,93
2024-01-26T06:35:35.872Z,93
2024-01-26T06:35:53.995Z,94
2024-01-26T06:36:25.008Z,94
2024-01-26T06:36:42.136Z,94
2024-01-26T06:37:14.065Z,94
2024-01-26T06:37:35.908Z,94
2024-01-26T06:38:01.316Z,94
2024-01-26T06:38:33.082Z,94
2024-01-26T06:39:39.834Z,94
2024-01-26T06:40:09.561Z,94
2024-01-26T06:40:35.848Z,94
2024-01-26T06:40:57.176Z,95
2024-01-26T06:41:29.162Z,95
2024-01-26T06:42:18.166Z,95
2024-01-26T06:42:35.862Z,95
2024-01-26T06:43:21.680Z,95